sensor_id;sensor_type;location;lat;lon;timestamp;P1;durP1;ratioP1;P2;durP2;ratioP2
56419;SDS011;42323;52.170;7.538;2023-05-29T00:00:46;6.50;;;2.25;;
56419;SDS011;42323;52.170;7.538;2023-05-29T00:03:12;7.60;;;2.42;;
56419;SDS011;42323;52.170;7.538;2023-05-29T00:05:39;8.20;;;2.10;;
56419;SDS011;42323;52.170;7.538;2023-05-29T00:08:06;6.57;;;2.00;;
56419;SDS011;42323;52.170;7.538;2023-05-29T00:10:35;7.53;;;2.33;;
56419;SDS011;42323;52.170;7.538;2023-05-29T00:13:03;11.25;;;2.60;;
56419;SDS011;42323;52.170;7.538;2023-05-29T00:15:31;6.93;;;2.28;;
56419;SDS011;42323;52.170;7.538;2023-05-29T00:17:57;9.48;;;2.83;;
56419;SDS011;42323;52.170;7.538;2023-05-29T00:20:24;11.48;;;2.55;;
56419;SDS011;42323;52.170;7.538;2023-05-29T00:22:50;11.07;;;2.50;;
56419;SDS011;42323;52.170;7.538;2023-05-29T00:25:17;10.10;;;2.67;;
56419;SDS011;42323;52.170;7.538;2023-05-29T00:27:44;8.95;;;2.25;;
56419;SDS011;42323;52.170;7.538;2023-05-29T00:30:11;9.80;;;2.65;;
56419;SDS011;42323;52.170;7.538;2023-05-29T00:32:38;8.05;;;2.10;;
56419;SDS011;42323;52.170;7.538;2023-05-29T00:35:05;8.45;;;2.30;;
56419;SDS011;42323;52.170;7.538;2023-05-29T00:37:32;8.60;;;2.38;;
56419;SDS011;42323;52.170;7.538;2023-05-29T00:39:58;6.97;;;2.17;;
56419;SDS011;42323;52.170;7.538;2023-05-29T00:42:25;9.77;;;2.20;;
56419;SDS011;42323;52.170;7.538;2023-05-29T00:44:52;9.68;;;2.28;;
56419;SDS011;42323;52.170;7.538;2023-05-29T00:47:18;5.60;;;1.92;;
56419;SDS011;42323;52.170;7.538;2023-05-29T00:49:45;11.70;;;2.75;;
56419;SDS011;42323;52.170;7.538;2023-05-29T00:52:11;9.93;;;2.75;;
56419;SDS011;42323;52.170;7.538;2023-05-29T00:54:39;8.03;;;2.67;;
56419;SDS011;42323;52.170;7.538;2023-05-29T00:57:10;6.37;;;2.40;;
56419;SDS011;42323;52.170;7.538;2023-05-29T00:59:38;8.43;;;2.50;;
56419;SDS011;42323;52.170;7.538;2023-05-29T01:02:06;10.05;;;2.60;;
56419;SDS011;42323;52.170;7.538;2023-05-29T01:04:32;8.07;;;2.22;;
56419;SDS011;42323;52.170;7.538;2023-05-29T01:07:02;7.73;;;2.70;;
56419;SDS011;42323;52.170;7.538;2023-05-29T01:09:30;8.15;;;2.58;;
56419;SDS011;42323;52.170;7.538;2023-05-29T01:23:47;6.53;;;2.70;;
56419;SDS011;42323;52.170;7.538;2023-05-29T01:26:32;9.30;;;2.83;;
56419;SDS011;42323;52.170;7.538;2023-05-29T01:29:02;6.85;;;2.45;;
56419;SDS011;42323;52.170;7.538;2023-05-29T01:31:33;10.43;;;3.25;;
56419;SDS011;42323;52.170;7.538;2023-05-29T01:34:01;10.60;;;2.60;;
56419;SDS011;42323;52.170;7.538;2023-05-29T01:36:28;9.88;;;2.90;;
56419;SDS011;42323;52.170;7.538;2023-05-29T01:38:56;8.13;;;2.53;;
56419;SDS011;42323;52.170;7.538;2023-05-29T01:41:24;8.57;;;2.97;;
56419;SDS011;42323;52.170;7.538;2023-05-29T01:43:52;8.27;;;2.65;;
56419;SDS011;42323;52.170;7.538;2023-05-29T01:46:20;8.85;;;2.92;;
56419;SDS011;42323;52.170;7.538;2023-05-29T01:48:47;10.23;;;2.60;;
56419;SDS011;42323;52.170;7.538;2023-05-29T01:51:15;9.57;;;2.78;;
56419;SDS011;42323;52.170;7.538;2023-05-29T01:53:41;8.63;;;2.65;;
56419;SDS011;42323;52.170;7.538;2023-05-29T01:56:08;10.25;;;2.47;;
56419;SDS011;42323;52.170;7.538;2023-05-29T01:58:37;10.77;;;2.80;;
56419;SDS011;42323;52.170;7.538;2023-05-29T02:01:05;12.68;;;2.58;;
56419;SDS011;42323;52.170;7.538;2023-05-29T02:03:33;9.57;;;2.90;;
56419;SDS011;42323;52.170;7.538;2023-05-29T02:06:00;10.03;;;2.60;;
56419;SDS011;42323;52.170;7.538;2023-05-29T02:08:27;8.30;;;2.53;;
56419;SDS011;42323;52.170;7.538;2023-05-29T02:10:54;8.50;;;2.53;;
56419;SDS011;42323;52.170;7.538;2023-05-29T02:13:21;8.57;;;2.63;;
56419;SDS011;42323;52.170;7.538;2023-05-29T02:15:47;8.43;;;2.88;;
56419;SDS011;42323;52.170;7.538;2023-05-29T02:18:15;8.70;;;2.70;;
56419;SDS011;42323;52.170;7.538;2023-05-29T02:20:43;10.93;;;3.00;;
56419;SDS011;42323;52.170;7.538;2023-05-29T02:23:10;6.97;;;2.55;;
56419;SDS011;42323;52.170;7.538;2023-05-29T02:25:36;11.60;;;3.35;;
56419;SDS011;42323;52.170;7.538;2023-05-29T02:28:03;8.70;;;2.77;;
56419;SDS011;42323;52.170;7.538;2023-05-29T02:30:30;9.60;;;2.90;;
56419;SDS011;42323;52.170;7.538;2023-05-29T02:32:57;10.35;;;3.15;;
56419;SDS011;42323;52.170;7.538;2023-05-29T02:35:23;9.68;;;2.78;;
56419;SDS011;42323;52.170;7.538;2023-05-29T02:37:50;10.02;;;2.78;;
56419;SDS011;42323;52.170;7.538;2023-05-29T02:40:18;10.05;;;3.30;;
56419;SDS011;42323;52.170;7.538;2023-05-29T02:42:46;10.45;;;3.15;;
56419;SDS011;42323;52.170;7.538;2023-05-29T02:45:13;9.65;;;2.60;;
56419;SDS011;42323;52.170;7.538;2023-05-29T02:47:39;12.20;;;3.40;;
56419;SDS011;42323;52.170;7.538;2023-05-29T02:50:06;10.02;;;2.95;;
56419;SDS011;42323;52.170;7.538;2023-05-29T02:52:33;9.80;;;2.80;;
56419;SDS011;42323;52.170;7.538;2023-05-29T02:54:59;9.67;;;3.23;;
56419;SDS011;42323;52.170;7.538;2023-05-29T02:57:26;9.43;;;2.88;;
56419;SDS011;42323;52.170;7.538;2023-05-29T02:59:52;12.50;;;2.58;;
56419;SDS011;42323;52.170;7.538;2023-05-29T03:02:19;9.82;;;3.15;;
56419;SDS011;42323;52.170;7.538;2023-05-29T03:04:46;8.57;;;2.72;;
56419;SDS011;42323;52.170;7.538;2023-05-29T03:07:12;8.77;;;2.75;;
56419;SDS011;42323;52.170;7.538;2023-05-29T03:09:39;11.02;;;3.35;;
56419;SDS011;42323;52.170;7.538;2023-05-29T03:12:06;10.50;;;2.70;;
56419;SDS011;42323;52.170;7.538;2023-05-29T03:14:33;11.02;;;3.00;;
56419;SDS011;42323;52.170;7.538;2023-05-29T03:17:04;12.60;;;3.20;;
56419;SDS011;42323;52.170;7.538;2023-05-29T03:19:31;7.95;;;2.75;;
56419;SDS011;42323;52.170;7.538;2023-05-29T03:21:58;10.13;;;3.00;;
56419;SDS011;42323;52.170;7.538;2023-05-29T03:24:24;11.77;;;3.47;;
56419;SDS011;42323;52.170;7.538;2023-05-29T03:26:51;11.05;;;3.10;;
56419;SDS011;42323;52.170;7.538;2023-05-29T03:29:17;10.53;;;2.63;;
56419;SDS011;42323;52.170;7.538;2023-05-29T03:31:44;7.57;;;3.10;;
56419;SDS011;42323;52.170;7.538;2023-05-29T03:34:11;9.13;;;2.70;;
56419;SDS011;42323;52.170;7.538;2023-05-29T03:36:37;21.23;;;15.43;;
56419;SDS011;42323;52.170;7.538;2023-05-29T03:39:04;14.90;;;8.27;;
56419;SDS011;42323;52.170;7.538;2023-05-29T03:41:31;51.53;;;46.10;;
56419;SDS011;42323;52.170;7.538;2023-05-29T03:43:57;11.13;;;2.97;;
56419;SDS011;42323;52.170;7.538;2023-05-29T03:46:24;9.82;;;3.42;;
56419;SDS011;42323;52.170;7.538;2023-05-29T03:48:51;14.77;;;4.22;;
56419;SDS011;42323;52.170;7.538;2023-05-29T03:51:17;8.68;;;2.88;;
56419;SDS011;42323;52.170;7.538;2023-05-29T03:53:44;10.40;;;3.28;;
56419;SDS011;42323;52.170;7.538;2023-05-29T03:56:10;11.33;;;3.80;;
56419;SDS011;42323;52.170;7.538;2023-05-29T03:58:37;11.65;;;3.38;;
56419;SDS011;42323;52.170;7.538;2023-05-29T04:01:03;10.73;;;3.40;;
56419;SDS011;42323;52.170;7.538;2023-05-29T04:03:31;10.57;;;3.63;;
56419;SDS011;42323;52.170;7.538;2023-05-29T04:05:57;12.32;;;4.43;;
56419;SDS011;42323;52.170;7.538;2023-05-29T04:08:24;37.87;;;32.30;;
56419;SDS011;42323;52.170;7.538;2023-05-29T04:10:51;66.07;;;45.80;;
56419;SDS011;42323;52.170;7.538;2023-05-29T04:13:20;9.18;;;2.90;;
56419;SDS011;42323;52.170;7.538;2023-05-29T04:15:47;91.38;;;65.57;;
56419;SDS011;42323;52.170;7.538;2023-05-29T04:18:14;11.25;;;3.38;;
56419;SDS011;42323;52.170;7.538;2023-05-29T04:20:40;31.58;;;28.42;;
56419;SDS011;42323;52.170;7.538;2023-05-29T04:23:07;55.53;;;45.13;;
56419;SDS011;42323;52.170;7.538;2023-05-29T04:25:34;112.85;;;80.30;;
56419;SDS011;42323;52.170;7.538;2023-05-29T04:28:00;283.25;;;135.57;;
56419;SDS011;42323;52.170;7.538;2023-05-29T04:30:29;340.73;;;158.03;;
56419;SDS011;42323;52.170;7.538;2023-05-29T04:32:55;402.83;;;169.10;;
56419;SDS011;42323;52.170;7.538;2023-05-29T04:35:23;414.60;;;174.40;;
56419;SDS011;42323;52.170;7.538;2023-05-29T04:37:50;265.98;;;129.10;;
56419;SDS011;42323;52.170;7.538;2023-05-29T04:40:16;485.70;;;209.88;;
56419;SDS011;42323;52.170;7.538;2023-05-29T04:42:43;262.60;;;129.38;;
56419;SDS011;42323;52.170;7.538;2023-05-29T04:45:13;357.80;;;158.88;;
56419;SDS011;42323;52.170;7.538;2023-05-29T04:47:40;114.83;;;81.17;;
56419;SDS011;42323;52.170;7.538;2023-05-29T04:50:12;11.80;;;2.78;;
56419;SDS011;42323;52.170;7.538;2023-05-29T04:52:40;10.85;;;3.55;;
56419;SDS011;42323;52.170;7.538;2023-05-29T04:55:06;430.97;;;188.87;;
56419;SDS011;42323;52.170;7.538;2023-05-29T04:57:33;146.98;;;71.35;;
56419;SDS011;42323;52.170;7.538;2023-05-29T05:00:00;10.50;;;2.53;;
56419;SDS011;42323;52.170;7.538;2023-05-29T05:02:34;14.75;;;5.10;;
56419;SDS011;42323;52.170;7.538;2023-05-29T05:05:39;18.75;;;6.20;;
56419;SDS011;42323;52.170;7.538;2023-05-29T05:08:52;21.77;;;6.03;;
56419;SDS011;42323;52.170;7.538;2023-05-29T05:16:09;22.97;;;7.30;;
56419;SDS011;42323;52.170;7.538;2023-05-29T05:18:46;15.35;;;4.53;;
56419;SDS011;42323;52.170;7.538;2023-05-29T05:21:30;13.63;;;4.07;;
56419;SDS011;42323;52.170;7.538;2023-05-29T05:24:05;12.32;;;3.78;;
56419;SDS011;42323;52.170;7.538;2023-05-29T05:26:46;15.75;;;5.65;;
56419;SDS011;42323;52.170;7.538;2023-05-29T05:29:15;15.88;;;4.88;;
56419;SDS011;42323;52.170;7.538;2023-05-29T05:31:44;13.63;;;4.00;;
56419;SDS011;42323;52.170;7.538;2023-05-29T05:34:27;12.43;;;3.47;;
56419;SDS011;42323;52.170;7.538;2023-05-29T05:37:07;38.05;;;21.63;;
56419;SDS011;42323;52.170;7.538;2023-05-29T05:39:37;20.20;;;8.07;;
56419;SDS011;42323;52.170;7.538;2023-05-29T05:42:21;168.20;;;100.68;;
56419;SDS011;42323;52.170;7.538;2023-05-29T05:44:58;34.95;;;31.30;;
56419;SDS011;42323;52.170;7.538;2023-05-29T05:47:54;63.53;;;56.13;;
56419;SDS011;42323;52.170;7.538;2023-05-29T05:51:00;123.80;;;82.60;;
56419;SDS011;42323;52.170;7.538;2023-05-29T05:54:03;353.93;;;156.13;;
56419;SDS011;42323;52.170;7.538;2023-05-29T05:56:30;412.15;;;175.55;;
56419;SDS011;42323;52.170;7.538;2023-05-29T05:58:59;409.63;;;176.00;;
56419;SDS011;42323;52.170;7.538;2023-05-29T06:01:26;288.90;;;137.18;;
56419;SDS011;42323;52.170;7.538;2023-05-29T06:03:53;11.20;;;3.28;;
56419;SDS011;42323;52.170;7.538;2023-05-29T06:06:20;6.53;;;2.97;;
56419;SDS011;42323;52.170;7.538;2023-05-29T06:08:54;10.05;;;3.10;;
56419;SDS011;42323;52.170;7.538;2023-05-29T06:11:22;11.38;;;2.90;;
56419;SDS011;42323;52.170;7.538;2023-05-29T06:14:10;10.40;;;3.17;;
56419;SDS011;42323;52.170;7.538;2023-05-29T06:16:41;6.35;;;2.40;;
56419;SDS011;42323;52.170;7.538;2023-05-29T06:19:14;10.25;;;3.03;;
56419;SDS011;42323;52.170;7.538;2023-05-29T06:21:41;10.68;;;2.72;;
56419;SDS011;42323;52.170;7.538;2023-05-29T06:24:11;11.65;;;2.80;;
56419;SDS011;42323;52.170;7.538;2023-05-29T06:26:38;8.57;;;2.60;;
56419;SDS011;42323;52.170;7.538;2023-05-29T06:29:06;11.23;;;3.72;;
56419;SDS011;42323;52.170;7.538;2023-05-29T06:31:33;9.55;;;2.42;;
56419;SDS011;42323;52.170;7.538;2023-05-29T06:34:06;11.18;;;2.97;;
56419;SDS011;42323;52.170;7.538;2023-05-29T06:36:33;7.25;;;2.50;;
56419;SDS011;42323;52.170;7.538;2023-05-29T06:39:02;7.88;;;2.75;;
56419;SDS011;42323;52.170;7.538;2023-05-29T06:41:29;7.77;;;2.27;;
56419;SDS011;42323;52.170;7.538;2023-05-29T06:43:58;9.85;;;3.00;;
56419;SDS011;42323;52.170;7.538;2023-05-29T06:46:32;10.10;;;3.63;;
56419;SDS011;42323;52.170;7.538;2023-05-29T06:49:10;10.60;;;2.80;;
56419;SDS011;42323;52.170;7.538;2023-05-29T06:51:40;9.52;;;2.60;;
56419;SDS011;42323;52.170;7.538;2023-05-29T06:54:09;10.53;;;3.20;;
56419;SDS011;42323;52.170;7.538;2023-05-29T06:56:37;11.85;;;2.55;;
56419;SDS011;42323;52.170;7.538;2023-05-29T06:59:07;8.00;;;2.60;;
56419;SDS011;42323;52.170;7.538;2023-05-29T07:01:41;6.45;;;2.20;;
56419;SDS011;42323;52.170;7.538;2023-05-29T07:04:11;9.25;;;2.80;;
56419;SDS011;42323;52.170;7.538;2023-05-29T07:06:54;9.02;;;2.70;;
56419;SDS011;42323;52.170;7.538;2023-05-29T07:09:21;7.85;;;2.75;;
56419;SDS011;42323;52.170;7.538;2023-05-29T07:11:51;11.77;;;3.20;;
56419;SDS011;42323;52.170;7.538;2023-05-29T07:14:20;9.02;;;2.60;;
56419;SDS011;42323;52.170;7.538;2023-05-29T07:16:50;10.60;;;3.50;;
56419;SDS011;42323;52.170;7.538;2023-05-29T07:19:27;12.45;;;3.65;;
56419;SDS011;42323;52.170;7.538;2023-05-29T07:21:56;11.60;;;3.88;;
56419;SDS011;42323;52.170;7.538;2023-05-29T07:24:23;8.63;;;3.08;;
56419;SDS011;42323;52.170;7.538;2023-05-29T07:26:56;144.45;;;73.28;;
56419;SDS011;42323;52.170;7.538;2023-05-29T07:29:36;10.57;;;3.25;;
56419;SDS011;42323;52.170;7.538;2023-05-29T07:32:19;15.95;;;4.68;;
56419;SDS011;42323;52.170;7.538;2023-05-29T07:34:52;51.15;;;24.48;;
56419;SDS011;42323;52.170;7.538;2023-05-29T07:40:44;20.83;;;6.82;;
56419;SDS011;42323;52.170;7.538;2023-05-29T07:43:26;167.30;;;100.00;;
56419;SDS011;42323;52.170;7.538;2023-05-29T07:46:07;22.13;;;6.13;;
56419;SDS011;42323;52.170;7.538;2023-05-29T07:48:46;19.97;;;6.37;;
56419;SDS011;42323;52.170;7.538;2023-05-29T07:51:46;21.05;;;7.03;;
56419;SDS011;42323;52.170;7.538;2023-05-29T07:54:22;17.38;;;5.00;;
56419;SDS011;42323;52.170;7.538;2023-05-29T08:00:10;11.65;;;3.20;;
56419;SDS011;42323;52.170;7.538;2023-05-29T08:02:47;8.13;;;2.50;;
56419;SDS011;42323;52.170;7.538;2023-05-29T08:05:38;11.30;;;3.10;;
56419;SDS011;42323;52.170;7.538;2023-05-29T08:08:15;7.60;;;2.20;;
56419;SDS011;42323;52.170;7.538;2023-05-29T08:10:53;9.43;;;2.20;;
56419;SDS011;42323;52.170;7.538;2023-05-29T08:16:32;8.77;;;2.92;;
56419;SDS011;42323;52.170;7.538;2023-05-29T08:19:11;9.70;;;2.90;;
56419;SDS011;42323;52.170;7.538;2023-05-29T08:22:07;12.18;;;3.75;;
56419;SDS011;42323;52.170;7.538;2023-05-29T08:24:47;10.20;;;2.47;;
56419;SDS011;42323;52.170;7.538;2023-05-29T08:27:35;10.57;;;2.75;;
56419;SDS011;42323;52.170;7.538;2023-05-29T08:30:40;11.68;;;3.58;;
56419;SDS011;42323;52.170;7.538;2023-05-29T08:33:24;13.18;;;3.90;;
56419;SDS011;42323;52.170;7.538;2023-05-29T08:35:58;7.93;;;2.90;;
56419;SDS011;42323;52.170;7.538;2023-05-29T08:38:48;9.90;;;3.10;;
56419;SDS011;42323;52.170;7.538;2023-05-29T08:44:29;7.90;;;3.03;;
56419;SDS011;42323;52.170;7.538;2023-05-29T08:47:04;7.63;;;2.83;;
56419;SDS011;42323;52.170;7.538;2023-05-29T08:49:55;10.10;;;2.70;;
56419;SDS011;42323;52.170;7.538;2023-05-29T08:53:02;8.45;;;2.85;;
56419;SDS011;42323;52.170;7.538;2023-05-29T08:56:26;9.57;;;3.50;;
56419;SDS011;42323;52.170;7.538;2023-05-29T08:59:08;9.45;;;3.00;;
56419;SDS011;42323;52.170;7.538;2023-05-29T09:02:24;10.18;;;3.85;;
56419;SDS011;42323;52.170;7.538;2023-05-29T09:05:39;8.55;;;2.63;;
56419;SDS011;42323;52.170;7.538;2023-05-29T09:12:16;10.40;;;3.80;;
56419;SDS011;42323;52.170;7.538;2023-05-29T09:22:54;11.35;;;3.65;;
56419;SDS011;42323;52.170;7.538;2023-05-29T09:34:35;10.07;;;3.35;;
56419;SDS011;42323;52.170;7.538;2023-05-29T09:37:27;9.00;;;2.53;;
56419;SDS011;42323;52.170;7.538;2023-05-29T09:40:40;9.20;;;3.57;;
56419;SDS011;42323;52.170;7.538;2023-05-29T09:43:32;7.22;;;2.00;;
56419;SDS011;42323;52.170;7.538;2023-05-29T09:46:48;9.30;;;3.50;;
56419;SDS011;42323;52.170;7.538;2023-05-29T09:49:29;10.03;;;3.30;;
56419;SDS011;42323;52.170;7.538;2023-05-29T09:52:24;5.43;;;2.40;;
56419;SDS011;42323;52.170;7.538;2023-05-29T09:59:14;10.20;;;3.20;;
56419;SDS011;42323;52.170;7.538;2023-05-29T10:02:13;9.70;;;3.10;;
56419;SDS011;42323;52.170;7.538;2023-05-29T10:13:13;9.15;;;3.58;;
56419;SDS011;42323;52.170;7.538;2023-05-29T10:26:51;6.70;;;2.10;;
56419;SDS011;42323;52.170;7.538;2023-05-29T10:29:56;6.45;;;2.40;;
56419;SDS011;42323;52.170;7.538;2023-05-29T10:32:36;7.78;;;2.28;;
56419;SDS011;42323;52.170;7.538;2023-05-29T10:35:10;6.25;;;1.77;;
56419;SDS011;42323;52.170;7.538;2023-05-29T10:38:05;7.95;;;2.58;;
56419;SDS011;42323;52.170;7.538;2023-05-29T10:47:39;7.72;;;2.85;;
56419;SDS011;42323;52.170;7.538;2023-05-29T10:53:16;7.00;;;2.30;;
56419;SDS011;42323;52.170;7.538;2023-05-29T10:55:47;7.88;;;2.25;;
56419;SDS011;42323;52.170;7.538;2023-05-29T10:58:27;5.70;;;1.85;;
56419;SDS011;42323;52.170;7.538;2023-05-29T11:01:18;4.93;;;2.30;;
56419;SDS011;42323;52.170;7.538;2023-05-29T11:07:05;6.45;;;2.10;;
56419;SDS011;42323;52.170;7.538;2023-05-29T11:12:33;8.57;;;2.72;;
56419;SDS011;42323;52.170;7.538;2023-05-29T11:15:24;7.07;;;2.38;;
56419;SDS011;42323;52.170;7.538;2023-05-29T11:18:10;5.35;;;1.98;;
56419;SDS011;42323;52.170;7.538;2023-05-29T11:20:49;6.20;;;2.30;;
56419;SDS011;42323;52.170;7.538;2023-05-29T11:30:47;7.87;;;2.10;;
56419;SDS011;42323;52.170;7.538;2023-05-29T11:33:26;6.07;;;1.80;;
56419;SDS011;42323;52.170;7.538;2023-05-29T11:36:00;5.32;;;1.95;;
56419;SDS011;42323;52.170;7.538;2023-05-29T11:38:28;4.53;;;1.60;;
56419;SDS011;42323;52.170;7.538;2023-05-29T11:40:55;7.20;;;1.90;;
56419;SDS011;42323;52.170;7.538;2023-05-29T11:43:22;7.15;;;2.22;;
56419;SDS011;42323;52.170;7.538;2023-05-29T11:45:49;7.13;;;2.25;;
56419;SDS011;42323;52.170;7.538;2023-05-29T11:48:16;4.55;;;1.67;;
56419;SDS011;42323;52.170;7.538;2023-05-29T11:50:42;6.18;;;1.70;;
56419;SDS011;42323;52.170;7.538;2023-05-29T11:53:11;5.07;;;1.65;;
56419;SDS011;42323;52.170;7.538;2023-05-29T11:55:38;4.85;;;1.77;;
56419;SDS011;42323;52.170;7.538;2023-05-29T11:58:05;6.25;;;1.80;;
56419;SDS011;42323;52.170;7.538;2023-05-29T12:00:34;5.67;;;2.13;;
56419;SDS011;42323;52.170;7.538;2023-05-29T12:03:08;5.22;;;2.33;;
56419;SDS011;42323;52.170;7.538;2023-05-29T12:06:15;9.35;;;2.80;;
56419;SDS011;42323;52.170;7.538;2023-05-29T12:13:07;6.90;;;1.92;;
56419;SDS011;42323;52.170;7.538;2023-05-29T12:15:59;6.97;;;2.95;;
56419;SDS011;42323;52.170;7.538;2023-05-29T12:26:15;4.63;;;1.67;;
56419;SDS011;42323;52.170;7.538;2023-05-29T12:30:05;5.15;;;2.10;;
56419;SDS011;42323;52.170;7.538;2023-05-29T12:37:20;6.13;;;2.25;;
56419;SDS011;42323;52.170;7.538;2023-05-29T12:44:51;5.85;;;2.10;;
56419;SDS011;42323;52.170;7.538;2023-05-29T12:48:25;6.68;;;2.17;;
56419;SDS011;42323;52.170;7.538;2023-05-29T12:55:08;6.55;;;2.35;;
56419;SDS011;42323;52.170;7.538;2023-05-29T12:58:09;5.97;;;1.90;;
56419;SDS011;42323;52.170;7.538;2023-05-29T13:01:38;6.07;;;2.67;;
56419;SDS011;42323;52.170;7.538;2023-05-29T13:11:09;5.90;;;2.35;;
56419;SDS011;42323;52.170;7.538;2023-05-29T13:14:21;6.72;;;2.88;;
56419;SDS011;42323;52.170;7.538;2023-05-29T13:22:02;5.97;;;2.40;;
56419;SDS011;42323;52.170;7.538;2023-05-29T13:25:39;7.78;;;2.30;;
56419;SDS011;42323;52.170;7.538;2023-05-29T13:28:25;6.78;;;2.25;;
56419;SDS011;42323;52.170;7.538;2023-05-29T13:31:02;4.55;;;1.80;;
56419;SDS011;42323;52.170;7.538;2023-05-29T13:33:51;6.40;;;1.98;;
56419;SDS011;42323;52.170;7.538;2023-05-29T13:36:47;5.68;;;2.03;;
56419;SDS011;42323;52.170;7.538;2023-05-29T13:39:37;5.45;;;2.13;;
56419;SDS011;42323;52.170;7.538;2023-05-29T13:42:34;5.57;;;2.28;;
56419;SDS011;42323;52.170;7.538;2023-05-29T13:45:12;8.18;;;2.28;;
56419;SDS011;42323;52.170;7.538;2023-05-29T13:47:54;8.25;;;2.17;;
56419;SDS011;42323;52.170;7.538;2023-05-29T13:57:52;6.50;;;2.20;;
56419;SDS011;42323;52.170;7.538;2023-05-29T14:03:20;5.75;;;2.00;;
56419;SDS011;42323;52.170;7.538;2023-05-29T14:06:35;5.30;;;2.05;;
56419;SDS011;42323;52.170;7.538;2023-05-29T14:12:37;9.02;;;1.80;;
56419;SDS011;42323;52.170;7.538;2023-05-29T14:15:15;15.23;;;2.00;;
56419;SDS011;42323;52.170;7.538;2023-05-29T14:17:55;5.85;;;1.80;;
56419;SDS011;42323;52.170;7.538;2023-05-29T14:20:56;6.35;;;1.80;;
56419;SDS011;42323;52.170;7.538;2023-05-29T14:23:39;3.97;;;1.47;;
56419;SDS011;42323;52.170;7.538;2023-05-29T14:26:10;3.80;;;1.55;;
56419;SDS011;42323;52.170;7.538;2023-05-29T14:28:56;4.67;;;1.73;;
56419;SDS011;42323;52.170;7.538;2023-05-29T14:37:59;6.82;;;1.80;;
56419;SDS011;42323;52.170;7.538;2023-05-29T14:40:39;6.65;;;2.03;;
56419;SDS011;42323;52.170;7.538;2023-05-29T14:43:43;6.65;;;1.80;;
56419;SDS011;42323;52.170;7.538;2023-05-29T14:46:23;6.55;;;2.15;;
56419;SDS011;42323;52.170;7.538;2023-05-29T14:48:53;6.53;;;1.90;;
56419;SDS011;42323;52.170;7.538;2023-05-29T15:01:40;4.50;;;1.80;;
56419;SDS011;42323;52.170;7.538;2023-05-29T15:04:43;6.38;;;1.95;;
56419;SDS011;42323;52.170;7.538;2023-05-29T15:07:17;6.35;;;2.13;;
56419;SDS011;42323;52.170;7.538;2023-05-29T15:10:10;6.88;;;2.28;;
56419;SDS011;42323;52.170;7.538;2023-05-29T15:16:17;5.22;;;1.75;;
56419;SDS011;42323;52.170;7.538;2023-05-29T15:25:59;7.30;;;1.98;;
56419;SDS011;42323;52.170;7.538;2023-05-29T15:29:18;5.77;;;1.80;;
56419;SDS011;42323;52.170;7.538;2023-05-29T15:32:20;6.75;;;1.73;;
56419;SDS011;42323;52.170;7.538;2023-05-29T15:35:24;7.18;;;2.15;;
56419;SDS011;42323;52.170;7.538;2023-05-29T15:38:25;6.07;;;2.00;;
56419;SDS011;42323;52.170;7.538;2023-05-29T15:48:35;6.55;;;1.95;;
56419;SDS011;42323;52.170;7.538;2023-05-29T15:51:02;5.93;;;1.92;;
56419;SDS011;42323;52.170;7.538;2023-05-29T15:53:29;5.28;;;1.60;;
56419;SDS011;42323;52.170;7.538;2023-05-29T15:56:08;5.33;;;1.90;;
56419;SDS011;42323;52.170;7.538;2023-05-29T15:59:12;4.78;;;1.60;;
56419;SDS011;42323;52.170;7.538;2023-05-29T16:01:50;4.78;;;1.65;;
56419;SDS011;42323;52.170;7.538;2023-05-29T16:04:21;5.28;;;1.70;;
56419;SDS011;42323;52.170;7.538;2023-05-29T16:07:01;6.70;;;2.85;;
56419;SDS011;42323;52.170;7.538;2023-05-29T16:09:52;4.95;;;1.60;;
56419;SDS011;42323;52.170;7.538;2023-05-29T16:12:19;6.63;;;1.80;;
56419;SDS011;42323;52.170;7.538;2023-05-29T16:14:46;4.72;;;1.60;;
56419;SDS011;42323;52.170;7.538;2023-05-29T16:17:12;5.43;;;1.73;;
56419;SDS011;42323;52.170;7.538;2023-05-29T16:19:39;4.90;;;1.50;;
56419;SDS011;42323;52.170;7.538;2023-05-29T16:22:06;4.00;;;1.60;;
56419;SDS011;42323;52.170;7.538;2023-05-29T16:24:33;4.35;;;1.88;;
56419;SDS011;42323;52.170;7.538;2023-05-29T16:27:00;5.63;;;1.90;;
56419;SDS011;42323;52.170;7.538;2023-05-29T16:29:29;5.40;;;2.10;;
56419;SDS011;42323;52.170;7.538;2023-05-29T16:31:56;4.75;;;2.45;;
56419;SDS011;42323;52.170;7.538;2023-05-29T16:34:23;7.80;;;3.65;;
56419;SDS011;42323;52.170;7.538;2023-05-29T16:36:49;4.90;;;2.00;;
56419;SDS011;42323;52.170;7.538;2023-05-29T16:39:16;7.63;;;2.83;;
56419;SDS011;42323;52.170;7.538;2023-05-29T16:41:48;5.70;;;3.20;;
56419;SDS011;42323;52.170;7.538;2023-05-29T16:44:15;7.78;;;4.28;;
56419;SDS011;42323;52.170;7.538;2023-05-29T16:46:41;9.75;;;5.18;;
56419;SDS011;42323;52.170;7.538;2023-05-29T16:49:08;69.10;;;51.08;;
56419;SDS011;42323;52.170;7.538;2023-05-29T16:51:37;11.82;;;8.02;;
56419;SDS011;42323;52.170;7.538;2023-05-29T16:54:07;14.43;;;11.00;;
56419;SDS011;42323;52.170;7.538;2023-05-29T16:56:33;13.27;;;10.90;;
56419;SDS011;42323;52.170;7.538;2023-05-29T16:59:00;8.88;;;4.35;;
56419;SDS011;42323;52.170;7.538;2023-05-29T17:01:27;5.72;;;2.10;;
56419;SDS011;42323;52.170;7.538;2023-05-29T17:03:54;5.78;;;2.13;;
56419;SDS011;42323;52.170;7.538;2023-05-29T17:06:21;6.53;;;1.90;;
56419;SDS011;42323;52.170;7.538;2023-05-29T17:08:47;4.70;;;1.53;;
56419;SDS011;42323;52.170;7.538;2023-05-29T17:11:14;5.20;;;1.95;;
56419;SDS011;42323;52.170;7.538;2023-05-29T17:13:41;4.85;;;1.88;;
56419;SDS011;42323;52.170;7.538;2023-05-29T17:16:07;5.53;;;1.70;;
56419;SDS011;42323;52.170;7.538;2023-05-29T17:18:34;4.57;;;1.65;;
56419;SDS011;42323;52.170;7.538;2023-05-29T17:21:00;4.33;;;1.43;;
56419;SDS011;42323;52.170;7.538;2023-05-29T17:23:27;6.95;;;1.80;;
56419;SDS011;42323;52.170;7.538;2023-05-29T17:25:53;6.20;;;1.73;;
56419;SDS011;42323;52.170;7.538;2023-05-29T17:31:20;6.70;;;1.90;;
56419;SDS011;42323;52.170;7.538;2023-05-29T17:34:03;5.20;;;1.67;;
56419;SDS011;42323;52.170;7.538;2023-05-29T17:36:57;6.50;;;1.70;;
56419;SDS011;42323;52.170;7.538;2023-05-29T17:39:56;5.60;;;1.92;;
56419;SDS011;42323;52.170;7.538;2023-05-29T17:42:35;5.73;;;1.60;;
56419;SDS011;42323;52.170;7.538;2023-05-29T17:45:22;5.10;;;1.80;;
56419;SDS011;42323;52.170;7.538;2023-05-29T17:47:53;4.35;;;1.48;;
56419;SDS011;42323;52.170;7.538;2023-05-29T17:50:28;5.20;;;1.60;;
56419;SDS011;42323;52.170;7.538;2023-05-29T17:53:01;4.37;;;1.60;;
56419;SDS011;42323;52.170;7.538;2023-05-29T17:55:43;5.90;;;1.75;;
56419;SDS011;42323;52.170;7.538;2023-05-29T17:58:17;4.28;;;1.42;;
56419;SDS011;42323;52.170;7.538;2023-05-29T18:00:46;5.60;;;1.77;;
56419;SDS011;42323;52.170;7.538;2023-05-29T18:03:13;5.75;;;1.60;;
56419;SDS011;42323;52.170;7.538;2023-05-29T18:05:40;5.25;;;1.40;;
56419;SDS011;42323;52.170;7.538;2023-05-29T18:08:07;5.10;;;1.87;;
56419;SDS011;42323;52.170;7.538;2023-05-29T18:10:33;4.25;;;1.50;;
56419;SDS011;42323;52.170;7.538;2023-05-29T18:13:00;6.93;;;1.60;;
56419;SDS011;42323;52.170;7.538;2023-05-29T18:15:27;4.72;;;1.40;;
56419;SDS011;42323;52.170;7.538;2023-05-29T18:17:53;4.25;;;1.45;;
56419;SDS011;42323;52.170;7.538;2023-05-29T18:20:20;4.28;;;1.40;;
56419;SDS011;42323;52.170;7.538;2023-05-29T18:22:50;4.32;;;1.55;;
56419;SDS011;42323;52.170;7.538;2023-05-29T18:25:21;6.32;;;1.75;;
56419;SDS011;42323;52.170;7.538;2023-05-29T18:27:48;5.33;;;1.60;;
56419;SDS011;42323;52.170;7.538;2023-05-29T18:30:21;4.90;;;1.50;;
56419;SDS011;42323;52.170;7.538;2023-05-29T18:32:54;7.87;;;1.87;;
56419;SDS011;42323;52.170;7.538;2023-05-29T18:35:23;4.53;;;1.30;;